createdAt,value
2022-10-08T00:00:43.816Z,16.10
2022-10-08T00:03:11.375Z,16.10
2022-10-08T00:05:38.971Z,16.00
2022-10-08T00:08:06.760Z,16.00
2022-10-08T00:10:34.355Z,16.00
2022-10-08T00:13:01.971Z,16.00
2022-10-08T00:15:30.917Z,16.10
2022-10-08T00:17:58.484Z,16.00
2022-10-08T00:20:26.052Z,16.00
2022-10-08T00:22:53.625Z,16.00
2022-10-08T00:25:21.167Z,16.00
2022-10-08T00:27:48.545Z,16.00
2022-10-08T00:30:16.205Z,16.00
2022-10-08T00:32:45.415Z,16.00
2022-10-08T00:35:13.211Z,16.10
2022-10-08T00:37:40.819Z,16.00
2022-10-08T00:40:09.007Z,16.00
2022-10-08T00:42:36.572Z,16.00
2022-10-08T00:45:04.451Z,16.00
2022-10-08T00:47:41.660Z,16.00
2022-10-08T00:50:17.101Z,16.00
2022-10-08T00:52:46.836Z,16.00
2022-10-08T00:55:15.685Z,16.00
2022-10-08T00:57:43.265Z,15.90
2022-10-08T01:00:12.080Z,16.00
2022-10-08T01:02:39.604Z,15.90
2022-10-08T01:05:08.170Z,16.00
2022-10-08T01:07:41.830Z,16.00
2022-10-08T01:10:13.980Z,16.00
2022-10-08T01:12:45.712Z,16.00
2022-10-08T01:15:18.907Z,16.00
2022-10-08T01:17:50.506Z,16.00
2022-10-08T01:20:37.305Z,15.90
2022-10-08T01:23:29.681Z,16.00
2022-10-08T01:25:59.888Z,15.90
2022-10-08T01:28:31.390Z,15.90
2022-10-08T01:31:01.407Z,15.90
2022-10-08T01:33:30.967Z,15.90
2022-10-08T01:35:59.259Z,15.90
2022-10-08T01:38:28.856Z,15.90
2022-10-08T01:40:56.421Z,15.90
2022-10-08T01:43:24.006Z,15.90
2022-10-08T01:45:54.972Z,15.90
2022-10-08T01:48:27.033Z,15.90
2022-10-08T01:50:56.308Z,15.90
2022-10-08T01:53:25.291Z,15.90
2022-10-08T01:55:54.700Z,15.90
2022-10-08T01:58:24.683Z,15.90
2022-10-08T02:00:53.755Z,15.90
2022-10-08T02:03:21.279Z,15.90
2022-10-08T02:05:50.363Z,15.90
2022-10-08T02:08:17.858Z,15.90
2022-10-08T02:10:45.418Z,15.80
2022-10-08T02:13:12.989Z,15.90
2022-10-08T02:15:43.833Z,15.90
2022-10-08T02:18:15.243Z,15.80
2022-10-08T02:20:45.252Z,15.90
2022-10-08T02:23:16.500Z,15.80
2022-10-08T02:25:47.013Z,15.80
2022-10-08T02:28:18.523Z,15.80
2022-10-08T02:30:48.307Z,15.80
2022-10-08T02:33:19.522Z,15.80
2022-10-08T02:35:50.033Z,15.80
2022-10-08T02:38:19.241Z,15.80
2022-10-08T02:40:49.340Z,15.80
2022-10-08T02:43:20.118Z,15.80
2022-10-08T02:45:50.729Z,15.80
2022-10-08T02:48:24.219Z,15.80
2022-10-08T02:50:51.708Z,15.80
2022-10-08T02:53:19.293Z,15.70
2022-10-08T02:55:50.984Z,15.80
2022-10-08T02:58:18.524Z,15.80
2022-10-08T03:00:49.798Z,15.80
2022-10-08T03:03:21.626Z,15.80
2022-10-08T03:05:49.249Z,15.80
2022-10-08T03:08:16.783Z,15.70
2022-10-08T03:10:44.453Z,15.70
2022-10-08T03:13:11.972Z,15.80
2022-10-08T03:15:39.604Z,15.70
2022-10-08T03:18:08.705Z,15.70
2022-10-08T03:20:42.530Z,15.70
2022-10-08T03:23:10.095Z,15.70
2022-10-08T03:25:37.549Z,15.70
2022-10-08T03:28:05.139Z,15.70
2022-10-08T03:30:32.792Z,15.70
2022-10-08T03:33:00.541Z,15.70
2022-10-08T03:35:28.027Z,15.70
2022-10-08T03:37:57.191Z,15.70
2022-10-08T03:40:25.040Z,15.70
2022-10-08T03:42:52.527Z,15.70
2022-10-08T03:45:20.145Z,15.70
2022-10-08T03:47:51.161Z,15.70
2022-10-08T03:50:18.899Z,15.70
2022-10-08T03:52:46.675Z,15.70
2022-10-08T03:55:16.197Z,15.70
2022-10-08T03:57:43.730Z,15.70
2022-10-08T04:00:12.975Z,15.60
2022-10-08T04:02:40.577Z,15.60
2022-10-08T04:05:08.886Z,15.60
2022-10-08T04:07:36.476Z,15.70
2022-10-08T04:10:05.002Z,15.60
2022-10-08T04:12:34.005Z,15.70
2022-10-08T04:15:01.522Z,15.70
2022-10-08T04:17:29.057Z,15.60
2022-10-08T04:19:56.583Z,15.70
2022-10-08T04:22:24.374Z,15.60
2022-10-08T04:24:51.859Z,15.60
2022-10-08T04:27:19.438Z,15.60
2022-10-08T04:29:48.456Z,15.60
2022-10-08T04:32:16.738Z,15.60
2022-10-08T04:34:44.272Z,15.60
2022-10-08T04:37:11.846Z,15.60
2022-10-08T04:39:39.520Z,15.60
2022-10-08T04:42:07.044Z,15.60
2022-10-08T04:44:34.643Z,15.60
2022-10-08T04:47:03.626Z,15.60
2022-10-08T04:49:31.215Z,15.60
2022-10-08T04:51:58.787Z,15.60
2022-10-08T04:54:26.573Z,15.60
2022-10-08T04:56:54.089Z,15.60
2022-10-08T04:59:21.759Z,15.60
2022-10-08T05:01:49.300Z,15.60
2022-10-08T05:04:18.304Z,15.60
2022-10-08T05:06:45.862Z,15.60
2022-10-08T05:09:13.472Z,15.60
2022-10-08T05:11:41.062Z,15.60
2022-10-08T05:14:08.741Z,15.60
2022-10-08T05:16:36.636Z,15.60
2022-10-08T05:19:04.132Z,15.60
2022-10-08T05:21:33.407Z,15.60
2022-10-08T05:24:01.976Z,15.60
2022-10-08T05:26:56.422Z,15.60
2022-10-08T05:29:18.620Z,15.50
2022-10-08T05:31:46.151Z,15.50
2022-10-08T05:34:13.862Z,15.50
2022-10-08T05:36:42.898Z,15.50
2022-10-08T05:39:10.886Z,15.60
2022-10-08T05:41:38.459Z,15.60
2022-10-08T05:44:06.583Z,15.50
2022-10-08T05:46:35.009Z,15.50
2022-10-08T05:49:04.317Z,15.50
2022-10-08T05:51:31.941Z,15.50
2022-10-08T05:54:01.319Z,15.50
2022-10-08T05:56:29.306Z,15.50
2022-10-08T05:58:57.062Z,15.50
2022-10-08T06:01:26.009Z,15.50
2022-10-08T06:03:54.526Z,15.50
2022-10-08T06:06:22.449Z,15.50
2022-10-08T06:08:53.779Z,15.50
2022-10-08T06:11:22.781Z,15.50
2022-10-08T06:13:52.984Z,15.50
2022-10-08T06:16:20.718Z,15.50
2022-10-08T06:18:48.909Z,15.50
2022-10-08T06:21:17.509Z,15.50
2022-10-08T06:23:46.570Z,15.50
2022-10-08T06:26:14.309Z,15.50
2022-10-08T06:28:43.595Z,15.50
2022-10-08T06:31:11.361Z,15.50
2022-10-08T06:33:39.136Z,15.50
2022-10-08T06:36:08.174Z,15.50
2022-10-08T06:38:35.907Z,15.50
2022-10-08T06:41:03.392Z,15.50
2022-10-08T06:43:30.924Z,15.50
2022-10-08T06:46:03.485Z,15.50
2022-10-08T06:48:31.160Z,15.50
2022-10-08T06:50:59.634Z,15.50
2022-10-08T06:53:27.115Z,15.50
2022-10-08T06:55:57.952Z,15.50
2022-10-08T06:58:25.973Z,15.50
2022-10-08T07:01:04.054Z,15.50
2022-10-08T07:03:31.667Z,15.50
2022-10-08T07:06:00.801Z,15.50
2022-10-08T07:08:28.609Z,15.50
2022-10-08T07:10:56.275Z,15.50
2022-10-08T07:13:23.855Z,15.50
2022-10-08T07:15:51.427Z,15.50
2022-10-08T07:18:20.535Z,15.50
2022-10-08T07:20:55.132Z,15.50
2022-10-08T07:23:22.746Z,15.50
2022-10-08T07:25:57.104Z,15.50
2022-10-08T07:28:25.289Z,15.50
2022-10-08T07:30:52.863Z,15.50
2022-10-08T07:33:22.109Z,15.50
2022-10-08T07:35:49.700Z,15.50
2022-10-08T07:38:17.276Z,15.50
2022-10-08T07:40:45.153Z,15.50
2022-10-08T07:43:15.487Z,15.50
2022-10-08T07:45:45.473Z,15.50
2022-10-08T07:48:13.162Z,15.50
2022-10-08T07:50:42.340Z,15.50
2022-10-08T07:53:09.858Z,15.50
2022-10-08T07:55:37.433Z,15.50
2022-10-08T07:58:05.123Z,15.50
2022-10-08T08:00:32.742Z,15.50
2022-10-08T08:03:00.354Z,15.50
2022-10-08T08:05:27.979Z,15.50
2022-10-08T08:07:56.993Z,15.50
2022-10-08T08:10:24.614Z,15.50
2022-10-08T08:12:52.215Z,15.50
2022-10-08T08:15:19.711Z,15.50
2022-10-08T08:17:47.212Z,15.60
2022-10-08T08:20:14.912Z,15.60
2022-10-08T08:22:42.414Z,15.60
2022-10-08T08:25:11.657Z,15.60
2022-10-08T08:27:39.311Z,15.60
2022-10-08T08:30:08.230Z,15.60
2022-10-08T08:32:35.752Z,15.60
2022-10-08T08:35:03.467Z,15.60
2022-10-08T08:37:31.103Z,15.60
2022-10-08T08:39:58.690Z,15.60
2022-10-08T08:42:47.255Z,15.60
2022-10-08T08:45:44.840Z,15.70
2022-10-08T08:48:17.053Z,15.70
2022-10-08T08:50:48.573Z,15.60
2022-10-08T08:53:16.639Z,15.60
2022-10-08T08:55:45.148Z,15.60
2022-10-08T08:58:18.857Z,15.60
2022-10-08T09:00:50.556Z,15.70
2022-10-08T09:03:20.471Z,15.70
2022-10-08T09:05:50.395Z,15.70
2022-10-08T09:08:19.294Z,15.70
2022-10-08T09:10:51.575Z,15.70
2022-10-08T09:13:22.142Z,15.70
2022-10-08T09:15:50.140Z,15.70
2022-10-08T09:18:17.602Z,15.70
2022-10-08T09:20:45.205Z,15.70
2022-10-08T09:23:15.548Z,15.70
2022-10-08T09:25:43.522Z,15.70
2022-10-08T09:28:11.224Z,15.70
2022-10-08T09:30:41.601Z,15.70
2022-10-08T09:33:23.822Z,15.70
2022-10-08T09:35:52.424Z,15.80
2022-10-08T09:38:22.410Z,15.80
2022-10-08T09:41:03.811Z,15.70
2022-10-08T09:43:31.604Z,15.80
2022-10-08T09:46:00.691Z,15.70
2022-10-08T09:48:29.480Z,15.80
2022-10-08T09:51:01.705Z,15.80
2022-10-08T09:53:33.966Z,15.80
2022-10-08T09:56:02.811Z,15.80
2022-10-08T09:58:32.349Z,15.80
2022-10-08T10:01:05.333Z,15.80
2022-10-08T10:03:32.978Z,15.80
2022-10-08T10:06:00.767Z,15.80
2022-10-08T10:08:54.667Z,15.80
2022-10-08T10:11:29.635Z,15.90
2022-10-08T10:13:57.199Z,15.90
2022-10-08T10:16:27.473Z,15.90
2022-10-08T10:18:57.818Z,15.90
2022-10-08T10:21:31.297Z,15.90
2022-10-08T10:24:10.289Z,15.90
2022-10-08T10:26:39.020Z,15.90
2022-10-08T10:29:09.567Z,15.90
2022-10-08T10:31:40.430Z,16.00
2022-10-08T10:34:11.360Z,16.00
2022-10-08T10:36:42.200Z,16.00
2022-10-08T10:39:16.696Z,16.00
2022-10-08T10:41:46.726Z,16.00
2022-10-08T10:44:14.582Z,16.00
2022-10-08T10:46:44.911Z,16.10
2022-10-08T10:49:13.783Z,16.10
2022-10-08T10:51:57.751Z,16.10
2022-10-08T10:54:34.743Z,16.10
2022-10-08T10:57:05.311Z,16.10
2022-10-08T10:59:44.749Z,16.10
2022-10-08T11:02:19.672Z,16.10
2022-10-08T11:04:52.395Z,16.10
2022-10-08T11:07:43.837Z,16.20
2022-10-08T11:10:19.499Z,16.20
2022-10-08T11:12:50.185Z,16.20
2022-10-08T11:15:24.038Z,16.20
2022-10-08T11:18:15.193Z,16.20
2022-10-08T11:20:56.215Z,16.20
2022-10-08T11:23:43.978Z,16.20
2022-10-08T11:26:22.476Z,16.20
2022-10-08T11:28:55.586Z,16.20
2022-10-08T11:31:28.385Z,16.20
2022-10-08T11:33:57.535Z,16.30
2022-10-08T11:36:32.815Z,16.30
2022-10-08T11:39:05.276Z,16.30
2022-10-08T11:41:34.938Z,16.30
2022-10-08T11:44:02.960Z,16.30
2022-10-08T11:46:31.007Z,16.30
2022-10-08T11:49:00.998Z,16.30
2022-10-08T11:51:30.774Z,16.30
2022-10-08T11:54:08.133Z,16.30
2022-10-08T11:56:37.659Z,16.40
2022-10-08T11:59:10.345Z,16.40
2022-10-08T12:01:51.289Z,16.40
2022-10-08T12:04:21.698Z,16.40
2022-10-08T12:06:49.321Z,16.40
2022-10-08T12:09:22.644Z,16.40
2022-10-08T12:11:52.249Z,16.40
2022-10-08T12:14:47.047Z,16.40
2022-10-08T12:17:14.689Z,16.50
2022-10-08T12:19:59.149Z,16.40
2022-10-08T12:22:43.333Z,16.50
2022-10-08T12:25:35.582Z,16.50
2022-10-08T12:28:39.907Z,16.50
2022-10-08T12:31:28.947Z,16.50
2022-10-08T12:33:58.649Z,16.50
2022-10-08T12:36:52.584Z,16.50
2022-10-08T12:39:26.889Z,16.50
2022-10-08T12:41:59.464Z,16.60
2022-10-08T12:44:34.385Z,16.60
2022-10-08T12:47:05.203Z,16.60
2022-10-08T12:49:35.710Z,16.70
2022-10-08T12:52:06.734Z,16.70
2022-10-08T12:54:34.323Z,16.70
2022-10-08T12:57:01.985Z,16.70
2022-10-08T12:59:30.204Z,16.70
2022-10-08T13:01:57.813Z,16.70
2022-10-08T13:04:26.723Z,16.70
2022-10-08T13:06:54.621Z,16.80
2022-10-08T13:09:28.913Z,16.80
2022-10-08T13:12:02.132Z,16.80
2022-10-08T13:14:32.004Z,16.80
2022-10-08T13:16:59.558Z,16.80
2022-10-08T13:19:31.572Z,16.80
2022-10-08T13:21:59.620Z,16.90
2022-10-08T13:24:33.466Z,16.80
2022-10-08T13:27:00.915Z,16.90
2022-10-08T13:29:33.599Z,16.90
2022-10-08T13:32:03.796Z,16.90
2022-10-08T13:34:32.767Z,16.90
2022-10-08T13:37:01.603Z,17.00
2022-10-08T13:39:33.078Z,17.00
2022-10-08T13:42:02.070Z,17.00
2022-10-08T13:44:29.667Z,17.00
2022-10-08T13:47:01.373Z,17.00
2022-10-08T13:49:32.942Z,17.00
2022-10-08T13:52:01.226Z,17.00
2022-10-08T13:54:29.632Z,17.10
2022-10-08T13:56:58.647Z,17.10
2022-10-08T13:59:30.492Z,17.10
2022-10-08T14:01:58.836Z,17.10
2022-10-08T14:04:26.574Z,17.10
2022-10-08T14:06:54.997Z,17.10
2022-10-08T14:09:24.142Z,17.10
2022-10-08T14:11:51.960Z,17.10
2022-10-08T14:14:21.279Z,17.10
2022-10-08T14:16:48.848Z,17.10
2022-10-08T14:19:16.438Z,17.10
2022-10-08T14:21:44.137Z,17.10
2022-10-08T14:24:12.153Z,17.20
2022-10-08T14:26:39.810Z,17.10
2022-10-08T14:29:07.405Z,17.20
2022-10-08T14:31:36.454Z,17.20
2022-10-08T14:34:04.064Z,17.20
2022-10-08T14:36:33.359Z,17.20
2022-10-08T14:39:00.957Z,17.20
2022-10-08T14:41:28.557Z,17.20
2022-10-08T14:43:56.279Z,17.20
2022-10-08T14:46:23.963Z,17.20
2022-10-08T14:48:53.146Z,17.20
2022-10-08T14:51:20.733Z,17.30
2022-10-08T14:53:48.282Z,17.30
2022-10-08T14:56:15.942Z,17.20
2022-10-08T14:58:43.600Z,17.30
2022-10-08T15:01:11.049Z,17.30
2022-10-08T15:03:38.720Z,17.30
2022-10-08T15:06:08.112Z,17.30
2022-10-08T15:08:35.598Z,17.30
2022-10-08T15:11:03.436Z,17.20
2022-10-08T15:13:30.918Z,17.20
2022-10-08T15:15:58.517Z,17.30
2022-10-08T15:18:26.175Z,17.20
2022-10-08T15:20:56.426Z,17.30
2022-10-08T15:23:25.669Z,17.30
2022-10-08T15:25:57.231Z,17.30
2022-10-08T15:28:25.038Z,17.30
2022-10-08T15:31:02.121Z,17.30
2022-10-08T15:33:29.752Z,17.30
2022-10-08T15:35:57.340Z,17.20
2022-10-08T15:38:26.351Z,17.20
2022-10-08T15:41:01.506Z,17.30
2022-10-08T15:43:33.085Z,17.30
2022-10-08T15:46:00.691Z,17.30
2022-10-08T15:48:28.345Z,17.30
2022-10-08T15:50:58.823Z,17.30
2022-10-08T15:53:27.807Z,17.30
2022-10-08T15:55:55.636Z,17.30
2022-10-08T15:58:48.999Z,17.30
2022-10-08T16:12:06.998Z,18.50
2022-10-08T16:14:34.625Z,18.10
2022-10-08T16:17:02.205Z,17.80
2022-10-08T16:19:30.139Z,17.70
2022-10-08T16:21:57.769Z,17.60
2022-10-08T16:24:25.317Z,17.50
2022-10-08T16:26:52.964Z,17.50
2022-10-08T16:29:22.012Z,17.40
2022-10-08T16:31:49.593Z,17.40
2022-10-08T16:34:18.200Z,17.40
2022-10-08T16:36:45.833Z,17.40
2022-10-08T16:39:13.685Z,17.40
2022-10-08T16:41:41.436Z,17.30
2022-10-08T16:44:12.593Z,17.30
2022-10-08T16:46:43.401Z,17.30
2022-10-08T16:49:15.673Z,17.30
2022-10-08T16:51:45.997Z,17.30
2022-10-08T16:54:14.951Z,17.30
2022-10-08T16:56:42.680Z,17.30
2022-10-08T16:59:11.759Z,17.30
2022-10-08T17:01:43.058Z,17.30
2022-10-08T17:04:10.659Z,17.30
2022-10-08T17:06:38.435Z,17.30
2022-10-08T17:09:06.032Z,17.30
2022-10-08T17:11:33.790Z,17.30
2022-10-08T17:14:01.593Z,17.30
2022-10-08T17:16:29.810Z,17.20
2022-10-08T17:18:59.588Z,17.30
2022-10-08T17:21:27.379Z,17.30
2022-10-08T17:23:56.724Z,17.30
2022-10-08T17:26:24.388Z,17.30
2022-10-08T17:28:52.119Z,17.30
2022-10-08T17:31:20.834Z,17.20
2022-10-08T17:33:48.519Z,17.30
2022-10-08T17:36:19.095Z,17.30
2022-10-08T17:38:48.119Z,17.30
2022-10-08T17:41:16.826Z,17.30
2022-10-08T17:43:44.577Z,17.20
2022-10-08T17:46:13.527Z,17.20
2022-10-08T17:48:41.321Z,17.20
2022-10-08T17:51:10.288Z,17.20
2022-10-08T17:53:39.408Z,17.20
2022-10-08T17:56:08.831Z,17.20
2022-10-08T17:58:36.347Z,17.20
2022-10-08T18:01:05.815Z,17.20
2022-10-08T18:03:33.464Z,17.20
2022-10-08T18:06:01.068Z,17.20
2022-10-08T18:08:28.936Z,17.20
2022-10-08T18:10:57.981Z,17.20
2022-10-08T18:13:25.493Z,17.20
2022-10-08T18:15:53.156Z,17.10
2022-10-08T18:18:20.739Z,17.10
2022-10-08T18:20:54.907Z,17.10
2022-10-08T18:23:22.674Z,17.10
2022-10-08T18:25:53.771Z,17.10
2022-10-08T18:28:23.345Z,17.10
2022-10-08T18:30:51.061Z,17.10
2022-10-08T18:33:22.715Z,17.10
2022-10-08T18:35:52.413Z,17.10
2022-10-08T18:38:19.946Z,17.10
2022-10-08T18:40:47.483Z,17.10
2022-10-08T18:43:15.074Z,17.10
2022-10-08T18:45:44.159Z,17.00
2022-10-08T18:48:11.664Z,17.00
2022-10-08T18:50:39.239Z,17.00
2022-10-08T18:53:06.810Z,17.00
2022-10-08T18:55:34.450Z,17.00
2022-10-08T18:58:01.987Z,17.00
2022-10-08T19:00:29.535Z,17.00
2022-10-08T19:02:58.737Z,17.00
2022-10-08T19:05:26.498Z,17.00
2022-10-08T19:07:54.048Z,17.00
2022-10-08T19:10:21.536Z,16.90
2022-10-08T19:12:49.311Z,16.90
2022-10-08T19:15:17.051Z,16.90
2022-10-08T19:17:46.186Z,16.90
2022-10-08T19:20:15.434Z,16.90
2022-10-08T19:22:42.920Z,16.90
2022-10-08T19:25:10.560Z,16.80
2022-10-08T19:27:38.164Z,16.80
2022-10-08T19:30:07.027Z,16.80
2022-10-08T19:32:34.932Z,16.80
2022-10-08T19:35:02.549Z,16.80
2022-10-08T19:37:31.476Z,16.80
2022-10-08T19:39:59.057Z,16.80
2022-10-08T19:42:26.540Z,16.80
2022-10-08T19:44:54.773Z,16.80
2022-10-08T19:47:22.257Z,16.70
2022-10-08T19:49:49.775Z,16.70
2022-10-08T19:52:17.249Z,16.70
2022-10-08T19:54:46.304Z,16.70
2022-10-08T19:57:13.860Z,16.70
2022-10-08T19:59:41.521Z,16.70
2022-10-08T20:02:10.260Z,16.70
2022-10-08T20:04:37.858Z,16.70
2022-10-08T20:07:05.402Z,16.70
2022-10-08T20:09:32.981Z,16.70
2022-10-08T20:12:02.061Z,16.70
2022-10-08T20:14:29.760Z,16.70
2022-10-08T20:16:57.305Z,16.60
2022-10-08T20:19:24.887Z,16.60
2022-10-08T20:21:53.855Z,16.60
2022-10-08T20:24:21.590Z,16.60
2022-10-08T20:26:49.327Z,16.60
2022-10-08T20:29:19.091Z,16.60
2022-10-08T20:31:48.092Z,16.60
2022-10-08T20:34:16.630Z,16.60
2022-10-08T20:36:44.244Z,16.60
2022-10-08T20:39:11.988Z,16.60
2022-10-08T20:41:39.617Z,16.60
2022-10-08T20:44:07.050Z,16.60
2022-10-08T20:46:36.955Z,16.60
2022-10-08T20:49:04.693Z,16.60
2022-10-08T20:51:32.330Z,16.60
2022-10-08T20:54:01.002Z,16.60
2022-10-08T20:56:28.788Z,16.60
2022-10-08T20:58:56.349Z,16.60
2022-10-08T21:01:24.671Z,16.60
2022-10-08T21:03:54.087Z,16.60
2022-10-08T21:06:23.115Z,16.60
2022-10-08T21:08:51.471Z,16.60
2022-10-08T21:11:21.409Z,16.60
2022-10-08T21:13:48.990Z,16.60
2022-10-08T21:16:17.674Z,16.60
2022-10-08T21:18:46.003Z,16.60
2022-10-08T21:21:15.290Z,16.60
2022-10-08T21:23:42.664Z,16.60
2022-10-08T21:26:10.945Z,16.60
2022-10-08T21:28:38.467Z,16.60
2022-10-08T21:31:06.773Z,16.60
2022-10-08T21:33:35.677Z,16.60
2022-10-08T21:36:03.426Z,16.60
2022-10-08T21:38:32.831Z,16.60
2022-10-08T21:41:01.750Z,16.60
2022-10-08T21:43:30.418Z,16.60
2022-10-08T21:45:58.387Z,16.70
2022-10-08T21:48:25.959Z,16.70
2022-10-08T21:50:57.751Z,16.70
2022-10-08T21:53:25.213Z,16.70
2022-10-08T21:55:58.262Z,16.60
2022-10-08T21:58:25.803Z,16.70
2022-10-08T22:00:53.482Z,16.60
2022-10-08T22:03:21.028Z,16.60
2022-10-08T22:05:52.659Z,16.60
2022-10-08T22:08:20.242Z,16.60
2022-10-08T22:10:48.367Z,16.50
2022-10-08T22:13:17.228Z,16.50
2022-10-08T22:15:52.629Z,16.50
2022-10-08T22:18:20.236Z,16.60
2022-10-08T22:20:47.824Z,16.50
2022-10-08T22:23:15.355Z,16.50
2022-10-08T22:25:43.003Z,16.50
2022-10-08T22:28:10.675Z,16.60
2022-10-08T22:30:39.847Z,16.50
2022-10-08T22:33:07.372Z,16.50
2022-10-08T22:35:34.923Z,16.50
2022-10-08T22:38:02.527Z,16.50
2022-10-08T22:40:30.674Z,16.50
2022-10-08T22:42:58.313Z,16.50
2022-10-08T22:45:25.947Z,16.50
2022-10-08T22:47:55.117Z,16.50
2022-10-08T22:50:22.678Z,16.50
2022-10-08T22:52:50.563Z,16.50
2022-10-08T22:55:18.471Z,16.50
2022-10-08T22:57:45.944Z,16.50
2022-10-08T23:00:15.075Z,16.50
2022-10-08T23:02:42.606Z,16.50
2022-10-08T23:05:11.618Z,16.50
2022-10-08T23:07:39.221Z,16.50
2022-10-08T23:10:07.425Z,16.50
2022-10-08T23:12:34.981Z,16.50
2022-10-08T23:15:02.525Z,16.50
2022-10-08T23:17:30.082Z,16.50
2022-10-08T23:19:57.611Z,16.50
2022-10-08T23:22:26.613Z,16.50
2022-10-08T23:24:54.146Z,16.50
2022-10-08T23:27:21.716Z,16.50
2022-10-08T23:29:49.205Z,16.50
2022-10-08T23:32:16.842Z,16.50
2022-10-08T23:34:44.519Z,16.40
2022-10-08T23:37:12.069Z,16.40
2022-10-08T23:39:41.191Z,16.40
2022-10-08T23:42:08.713Z,16.50
2022-10-08T23:44:36.244Z,16.40
2022-10-08T23:47:03.891Z,16.40
2022-10-08T23:49:31.433Z,16.40
2022-10-08T23:51:58.977Z,16.40
2022-10-08T23:54:26.644Z,16.40
2022-10-08T23:56:55.665Z,16.40
2022-10-08T23:59:23.241Z,16.40
